Time;durP1;ratioP1;P1;durP2;ratioP2;P2;SDS_P1;SDS_P2;PMS_P1;PMS_P2;Temp;Humidity;BMP_temperature;BMP_pressure;BME280_temperature;BME280_humidity;BME280_pressure;Samples;Min_cycle;Max_cycle;Signal;HPM_P1;HPM_P2
2021/04/25 00:02:21;;;;;;;1.50;0.57;;;8.70;99.90;;;;;;5109218;27;20553;-80
2021/04/25 00:04:48;;;;;;;0.63;0.63;;;8.60;99.90;;;;;;5115032;27;20200;-80
2021/04/25 00:07:13;;;;;;;0.43;0.43;;;8.50;99.90;;;;;;5104843;27;20220;-80
2021/04/25 00:09:39;;;;;;;0.13;0.13;;;8.40;99.90;;;;;;5098934;28;20179;-80
2021/04/25 00:12:05;;;;;;;0.83;0.40;;;8.40;99.90;;;;;;5113827;27;20651;-80
2021/04/25 00:14:31;;;;;;;0.50;0.43;;;8.50;99.90;;;;;;5093157;28;20181;-80
2021/04/25 00:16:58;;;;;;;0.10;0.10;;;8.50;99.90;;;;;;5099936;28;20260;-80
2021/04/25 00:19:23;;;;;;;0.30;0.30;;;8.40;99.90;;;;;;5107165;28;20272;-80
2021/04/25 00:21:49;;;;;;;0.33;0.33;;;8.50;99.90;;;;;;5102205;28;20631;-80
2021/04/25 00:24:15;;;;;;;0.67;0.30;;;8.60;99.90;;;;;;5103004;28;20181;-80
2021/04/25 00:26:41;;;;;;;0.30;0.30;;;8.60;99.90;;;;;;5096537;28;20242;-80
2021/04/25 00:29:06;;;;;;;0.30;0.20;;;8.50;99.90;;;;;;5108757;28;20600;-79
2021/04/25 00:31:33;;;;;;;0.83;0.40;;;8.40;99.90;;;;;;5106792;28;20285;-80
2021/04/25 00:33:59;;;;;;;0.43;0.30;;;8.40;99.90;;;;;;5105103;27;20181;-80
2021/04/25 00:36:25;;;;;;;0.40;0.40;;;8.30;99.90;;;;;;5118488;27;20177;-80
2021/04/25 00:38:50;;;;;;;0.33;0.27;;;8.30;99.90;;;;;;5102621;27;20192;-78
2021/04/25 00:41:16;;;;;;;0.13;0.13;;;8.20;99.90;;;;;;5113048;28;20201;-80
2021/04/25 00:43:41;;;;;;;0.47;0.47;;;8.10;99.90;;;;;;5094406;28;20189;-79
2021/04/25 00:46:07;;;;;;;0.10;0.10;;;8.10;99.90;;;;;;5106186;27;20238;-79
2021/04/25 00:48:33;;;;;;;0.20;0.20;;;8.00;99.90;;;;;;5110926;27;20173;-79
2021/04/25 00:50:58;;;;;;;4.90;0.47;;;8.10;99.90;;;;;;5094591;28;20206;-80
2021/04/25 00:53:24;;;;;;;0.23;0.23;;;8.20;99.90;;;;;;5096462;28;20190;-79
2021/04/25 00:55:51;;;;;;;0.10;0.10;;;8.10;99.90;;;;;;5114010;28;20187;-80
2021/04/25 00:58:17;;;;;;;0.20;0.20;;;8.20;99.90;;;;;;5111363;27;20256;-80
2021/04/25 01:00:43;;;;;;;1.80;0.30;;;8.20;99.90;;;;;;5104685;27;20282;-80
2021/04/25 01:03:08;;;;;;;0.50;0.50;;;8.00;99.90;;;;;;5106458;27;20890;-80
2021/04/25 01:05:34;;;;;;;0.30;0.30;;;7.90;99.90;;;;;;5099143;28;20285;-80
2021/04/25 01:08:00;;;;;;;0.47;0.20;;;7.80;99.90;;;;;;5101943;28;20286;-80
2021/04/25 01:10:25;;;;;;;0.30;0.27;;;7.80;99.90;;;;;;5111691;28;20196;-80
2021/04/25 01:12:51;;;;;;;0.20;0.20;;;7.70;99.90;;;;;;5105273;27;20175;-80
2021/04/25 01:15:18;;;;;;;0.10;0.10;;;7.70;99.90;;;;;;5116351;27;20179;-80
2021/04/25 01:17:46;;;;;;;0.10;0.10;;;7.60;99.90;;;;;;5111700;27;20187;-80
2021/04/25 01:20:14;;;;;;;1.27;1.27;;;7.50;99.90;;;;;;5108252;28;20214;-80
2021/04/25 01:22:40;;;;;;;2.07;0.40;;;7.50;99.90;;;;;;5104451;28;20184;-79
2021/04/25 01:25:08;;;;;;;0.30;0.30;;;7.50;99.90;;;;;;5089737;28;20174;-80
2021/04/25 01:27:33;;;;;;;0.13;0.13;;;7.50;99.90;;;;;;5104764;28;20180;-80
2021/04/25 01:29:59;;;;;;;1.13;0.60;;;7.40;99.90;;;;;;5108944;28;20213;-79
2021/04/25 01:32:25;;;;;;;0.20;0.20;;;7.20;99.90;;;;;;5103586;28;20183;-79
2021/04/25 01:34:50;;;;;;;2.67;0.40;;;7.10;99.90;;;;;;5111425;28;20656;-80
2021/04/25 01:37:16;;;;;;;0.50;0.50;;;7.10;99.90;;;;;;5113889;28;20178;-80
2021/04/25 01:39:42;;;;;;;0.47;0.47;;;7.10;99.90;;;;;;5109779;28;20721;-80
2021/04/25 01:42:08;;;;;;;0.20;0.20;;;7.10;99.90;;;;;;5106248;28;20188;-79
2021/04/25 01:44:33;;;;;;;0.20;0.20;;;7.20;99.90;;;;;;5102195;28;20184;-80
2021/04/25 01:46:59;;;;;;;0.37;0.37;;;7.10;99.90;;;;;;5107003;28;20237;-79
2021/04/25 01:49:24;;;;;;;0.20;0.20;;;7.10;99.90;;;;;;5106680;28;20608;-80
2021/04/25 01:51:50;;;;;;;0.13;0.10;;;7.00;99.90;;;;;;5099555;28;20219;-80
2021/04/25 01:54:16;;;;;;;0.10;0.10;;;6.90;99.90;;;;;;5101583;27;20172;-80
2021/04/25 01:56:41;;;;;;;0.87;0.23;;;7.00;99.90;;;;;;5110451;27;20179;-80
2021/04/25 01:59:07;;;;;;;0.70;0.20;;;6.90;99.90;;;;;;5100995;28;20220;-80
2021/04/25 02:01:33;;;;;;;0.30;0.30;;;6.90;99.90;;;;;;5111403;27;20207;-80
2021/04/25 02:03:59;;;;;;;0.37;0.37;;;6.80;99.90;;;;;;5094886;28;20225;-80
2021/04/25 02:06:26;;;;;;;0.60;0.60;;;6.80;99.90;;;;;;5107323;28;20613;-80
2021/04/25 02:08:51;;;;;;;0.60;0.60;;;6.70;99.90;;;;;;5105577;28;20177;-79
2021/04/25 02:11:17;;;;;;;0.30;0.30;;;6.70;99.90;;;;;;5110595;27;20551;-80
2021/04/25 02:13:43;;;;;;;0.33;0.30;;;6.60;99.90;;;;;;5097183;28;20208;-80
2021/04/25 02:16:08;;;;;;;0.40;0.40;;;6.60;99.90;;;;;;5124248;27;20187;-80
2021/04/25 02:18:34;;;;;;;0.37;0.20;;;6.60;99.90;;;;;;5093653;27;20196;-80
2021/04/25 02:21:00;;;;;;;0.30;0.30;;;6.60;99.90;;;;;;5097994;28;20232;-78
2021/04/25 02:23:26;;;;;;;0.30;0.30;;;6.60;99.90;;;;;;5093077;28;20180;-79
2021/04/25 02:25:52;;;;;;;0.10;0.10;;;6.60;99.90;;;;;;5105997;27;20219;-80
2021/04/25 02:28:17;;;;;;;2.60;0.63;;;6.60;99.90;;;;;;5121136;27;20664;-80
2021/04/25 02:30:44;;;;;;;0.03;0.03;;;6.60;99.90;;;;;;5103266;28;20682;-80
2021/04/25 02:33:11;;;;;;;0.30;0.30;;;6.60;99.90;;;;;;5099174;28;20180;-79
2021/04/25 02:35:37;;;;;;;1.70;0.30;;;6.60;99.90;;;;;;5099681;28;20210;-80
2021/04/25 02:38:03;;;;;;;0.17;0.17;;;6.60;99.90;;;;;;5105394;28;20279;-80
2021/04/25 02:40:31;;;;;;;0.10;0.10;;;6.70;99.90;;;;;;5102044;28;20618;-80
2021/04/25 02:42:58;;;;;;;0.70;0.53;;;6.60;99.90;;;;;;5097442;28;20226;-80
2021/04/25 02:45:25;;;;;;;0.33;0.33;;;6.60;99.90;;;;;;5101217;28;20582;-80
2021/04/25 02:47:55;;;;;;;0.40;0.40;;;6.50;99.90;;;;;;5103590;28;20183;-80
2021/04/25 02:50:23;;;;;;;0.97;0.60;;;6.60;99.90;;;;;;5098622;28;20200;-79
2021/04/25 02:52:49;;;;;;;0.37;0.37;;;6.60;99.90;;;;;;5094225;28;20648;-79
2021/04/25 02:55:16;;;;;;;0.43;0.43;;;6.60;99.90;;;;;;5099308;28;20188;-79
2021/04/25 02:57:41;;;;;;;0.63;0.63;;;6.60;99.90;;;;;;5094348;28;20179;-80
2021/04/25 03:00:09;;;;;;;1.90;0.40;;;6.50;99.90;;;;;;5091762;28;20295;-79
2021/04/25 03:02:35;;;;;;;0.30;0.30;;;6.50;99.90;;;;;;5116275;27;20184;-80
2021/04/25 03:05:01;;;;;;;0.20;0.20;;;6.60;99.90;;;;;;5104224;27;20173;-79
2021/04/25 03:07:27;;;;;;;0.20;0.20;;;6.50;99.90;;;;;;5097144;28;20226;-80
2021/04/25 03:09:52;;;;;;;0.17;0.17;;;6.50;99.90;;;;;;5104035;27;20199;-80
2021/04/25 03:12:18;;;;;;;0.20;0.20;;;6.40;99.90;;;;;;5095467;27;20207;-80
2021/04/25 03:14:43;;;;;;;0.20;0.20;;;6.40;99.90;;;;;;5103036;28;20205;-80
2021/04/25 03:17:09;;;;;;;1.23;0.30;;;6.40;99.90;;;;;;5095260;28;20678;-80
2021/04/25 03:19:34;;;;;;;0.20;0.20;;;6.40;99.90;;;;;;5096900;28;20752;-80
2021/04/25 03:22:00;;;;;;;0.43;0.43;;;6.40;99.90;;;;;;5104365;28;20247;-80
2021/04/25 03:24:26;;;;;;;0.10;0.10;;;6.30;99.90;;;;;;5107383;28;20198;-78
2021/04/25 03:26:51;;;;;;;0.17;0.17;;;6.30;99.90;;;;;;5098581;28;20252;-80
2021/04/25 03:29:17;;;;;;;0.43;0.40;;;6.40;99.90;;;;;;5098122;28;20189;-82
2021/04/25 03:31:43;;;;;;;0.10;0.10;;;6.40;99.90;;;;;;5107807;28;20204;-82
2021/04/25 03:34:09;;;;;;;0.20;0.20;;;6.30;99.90;;;;;;5096137;28;20268;-78
2021/04/25 03:36:35;;;;;;;0.43;0.10;;;6.30;99.90;;;;;;5091615;28;20271;-78
2021/04/25 03:39:00;;;;;;;0.40;0.40;;;6.30;99.90;;;;;;5093649;28;20283;-77
2021/04/25 03:41:26;;;;;;;0.63;0.50;;;6.30;99.90;;;;;;5097650;28;20203;-80
2021/04/25 03:43:53;;;;;;;0.93;0.43;;;6.30;99.90;;;;;;5102467;28;20354;-80
2021/04/25 03:46:19;;;;;;;0.73;0.30;;;6.30;99.90;;;;;;5090346;28;20680;-80
2021/04/25 03:48:44;;;;;;;0.37;0.20;;;6.20;99.90;;;;;;5092625;28;20180;-80
2021/04/25 03:51:10;;;;;;;0.37;0.37;;;6.10;99.90;;;;;;5091335;28;20208;-79
2021/04/25 03:53:37;;;;;;;0.17;0.17;;;6.10;99.90;;;;;;5091143;28;20191;-79
2021/04/25 03:56:02;;;;;;;0.10;0.10;;;6.00;99.90;;;;;;5096929;28;20561;-80
2021/04/25 03:58:28;;;;;;;0.20;0.20;;;6.00;99.90;;;;;;5090180;28;20181;-79
2021/04/25 04:00:53;;;;;;;0.63;0.20;;;5.90;99.90;;;;;;5104760;28;20341;-80
2021/04/25 04:03:19;;;;;;;0.20;0.20;;;5.90;99.90;;;;;;5110344;28;20183;-78
2021/04/25 04:05:45;;;;;;;0.17;0.17;;;5.90;99.90;;;;;;5089848;28;20215;-80
2021/04/25 04:08:11;;;;;;;0.13;0.13;;;5.80;99.90;;;;;;5093003;28;20195;-80
2021/04/25 04:10:36;;;;;;;0.23;0.23;;;5.80;99.90;;;;;;5108423;27;20209;-80
2021/04/25 04:13:02;;;;;;;0.10;0.10;;;5.80;99.90;;;;;;5092490;28;20181;-80
2021/04/25 04:15:28;;;;;;;0.23;0.23;;;5.80;99.90;;;;;;5107171;28;20183;-80
2021/04/25 04:17:53;;;;;;;0.37;0.37;;;5.80;99.90;;;;;;5101831;28;20252;-79
2021/04/25 04:20:20;;;;;;;0.20;0.20;;;5.80;99.90;;;;;;5098926;28;20269;-80
2021/04/25 04:22:45;;;;;;;0.20;0.20;;;5.80;99.90;;;;;;5097745;28;20186;-79
2021/04/25 04:25:11;;;;;;;0.00;0.00;;;5.80;99.90;;;;;;5091010;28;20237;-80
2021/04/25 04:27:37;;;;;;;0.03;0.03;;;5.80;99.90;;;;;;5093436;28;20187;-80
2021/04/25 04:30:05;;;;;;;0.30;0.30;;;5.90;99.90;;;;;;5096239;28;20768;-80
2021/04/25 04:32:30;;;;;;;2.33;1.00;;;5.90;99.90;;;;;;5101230;28;20186;-79
2021/04/25 04:34:56;;;;;;;0.40;0.30;;;5.90;99.90;;;;;;5106141;28;20258;-79
2021/04/25 04:37:22;;;;;;;0.20;0.20;;;6.00;99.90;;;;;;5098795;28;20188;-80
2021/04/25 04:39:47;;;;;;;0.10;0.10;;;6.00;99.90;;;;;;5098891;28;20239;-80
2021/04/25 04:42:13;;;;;;;0.10;0.10;;;6.00;99.90;;;;;;5104451;28;20666;-80
2021/04/25 04:44:38;;;;;;;0.33;0.30;;;6.00;99.90;;;;;;5112556;28;20192;-80
2021/04/25 04:47:04;;;;;;;0.10;0.10;;;6.00;99.90;;;;;;5110917;28;20210;-80
2021/04/25 04:49:30;;;;;;;0.20;0.20;;;6.20;99.90;;;;;;5103115;28;20184;-80
2021/04/25 04:51:55;;;;;;;0.40;0.40;;;6.20;99.90;;;;;;5109427;28;20287;-80
2021/04/25 04:54:21;;;;;;;0.10;0.10;;;6.20;99.90;;;;;;5110029;28;20564;-79
2021/04/25 04:56:46;;;;;;;0.40;0.40;;;6.20;99.90;;;;;;5105718;28;20187;-80
2021/04/25 04:59:12;;;;;;;1.00;0.23;;;6.30;99.90;;;;;;5091880;28;20564;-79
2021/04/25 05:01:37;;;;;;;0.20;0.20;;;6.20;99.90;;;;;;5094422;28;20273;-80
2021/04/25 05:04:03;;;;;;;0.10;0.10;;;6.20;99.90;;;;;;5097410;28;20271;-79
2021/04/25 05:06:29;;;;;;;0.10;0.10;;;6.30;99.90;;;;;;5105084;28;20217;-78
2021/04/25 05:08:54;;;;;;;0.00;0.00;;;6.30;99.90;;;;;;5098917;28;20220;-80
2021/04/25 05:11:20;;;;;;;0.10;0.10;;;6.40;99.90;;;;;;5120495;28;20211;-80
2021/04/25 05:13:46;;;;;;;2.43;1.80;;;6.40;99.90;;;;;;5092516;27;20180;-80
2021/04/25 05:16:11;;;;;;;0.10;0.10;;;6.50;99.90;;;;;;5092816;28;20205;-83
2021/04/25 05:18:38;;;;;;;0.13;0.13;;;6.70;99.90;;;;;;5122311;27;20184;-84
2021/04/25 05:21:05;;;;;;;0.40;0.40;;;6.90;99.90;;;;;;5116270;27;20215;-82
2021/04/25 05:23:31;;;;;;;0.33;0.33;;;7.00;99.90;;;;;;5098102;28;20188;-83
2021/04/25 05:25:57;;;;;;;0.10;0.10;;;7.00;99.90;;;;;;5094446;28;20330;-83
2021/04/25 05:28:23;;;;;;;0.10;0.10;;;7.10;99.90;;;;;;5098134;28;20651;-84
2021/04/25 05:30:49;;;;;;;0.23;0.23;;;7.20;99.90;;;;;;5115951;28;20607;-80
2021/04/25 05:33:15;;;;;;;0.10;0.10;;;7.40;99.90;;;;;;5106176;28;20193;-80
2021/04/25 05:35:40;;;;;;;0.10;0.10;;;7.70;99.90;;;;;;5103240;27;20195;-80
2021/04/25 05:38:06;;;;;;;0.10;0.10;;;7.70;99.90;;;;;;5114228;27;20189;-79
2021/04/25 05:40:32;;;;;;;0.10;0.10;;;7.60;99.90;;;;;;5101932;28;20299;-80
2021/04/25 05:42:57;;;;;;;0.07;0.07;;;7.80;99.90;;;;;;5105080;28;20182;-80
2021/04/25 05:45:23;;;;;;;0.10;0.10;;;7.50;99.90;;;;;;5096865;28;20185;-78
2021/04/25 05:47:50;;;;;;;0.20;0.20;;;7.40;99.90;;;;;;5101830;28;20200;-80
2021/04/25 05:50:17;;;;;;;0.10;0.10;;;7.40;99.90;;;;;;5110344;28;20224;-79
2021/04/25 05:52:42;;;;;;;0.20;0.20;;;7.50;99.90;;;;;;5109777;28;20187;-79
2021/04/25 05:55:08;;;;;;;0.10;0.10;;;7.60;99.90;;;;;;5112253;28;20177;-83
2021/04/25 05:57:34;;;;;;;0.27;0.27;;;7.80;99.90;;;;;;5095640;28;20506;-84
2021/04/25 06:00:00;;;;;;;0.40;0.30;;;7.70;99.90;;;;;;5102766;28;20199;-83
2021/04/25 06:02:27;;;;;;;2.30;0.27;;;7.80;99.90;;;;;;5107738;27;20189;-82
2021/04/25 06:04:52;;;;;;;0.10;0.10;;;8.00;99.90;;;;;;5104916;28;20563;-82
2021/04/25 06:07:18;;;;;;;0.10;0.10;;;8.10;99.90;;;;;;5103221;28;20204;-83
2021/04/25 06:09:43;;;;;;;0.17;0.13;;;8.00;99.90;;;;;;5109263;28;20184;-82
2021/04/25 06:12:13;;;;;;;0.87;0.57;;;7.90;99.90;;;;;;5095414;28;20173;-84
2021/04/25 06:14:39;;;;;;;0.10;0.10;;;8.00;99.90;;;;;;5094888;28;20176;-81
2021/04/25 06:17:05;;;;;;;0.00;0.00;;;8.20;99.90;;;;;;5098690;28;20239;-80
2021/04/25 06:19:31;;;;;;;0.50;0.50;;;8.40;99.90;;;;;;5100701;28;20183;-80
2021/04/25 06:21:56;;;;;;;0.10;0.10;;;8.40;99.90;;;;;;5097293;28;20701;-80
2021/04/25 06:24:22;;;;;;;0.10;0.10;;;8.40;99.90;;;;;;5103259;28;20186;-79
2021/04/25 06:26:48;;;;;;;0.10;0.10;;;8.40;99.90;;;;;;5094985;27;20274;-83
2021/04/25 06:29:13;;;;;;;0.47;0.47;;;8.50;99.90;;;;;;5102599;27;20214;-84
2021/04/25 06:31:39;;;;;;;0.10;0.10;;;8.70;99.90;;;;;;5101854;28;20199;-83
2021/04/25 06:34:05;;;;;;;0.50;0.30;;;8.80;99.90;;;;;;5102773;27;20243;-83
2021/04/25 06:36:30;;;;;;;0.37;0.30;;;8.90;99.90;;;;;;5107335;28;20189;-83
2021/04/25 06:38:56;;;;;;;0.53;0.53;;;9.00;99.90;;;;;;5107861;28;20188;-81
2021/04/25 06:41:21;;;;;;;2.53;0.30;;;9.40;99.90;;;;;;5105750;28;20231;-83
2021/04/25 06:43:47;;;;;;;0.07;0.07;;;9.30;99.90;;;;;;5102918;28;20193;-83
2021/04/25 06:46:13;;;;;;;0.23;0.13;;;9.60;99.90;;;;;;5104517;28;20226;-83
2021/04/25 06:48:38;;;;;;;0.13;0.10;;;9.90;99.90;;;;;;5094986;28;20230;-83
2021/04/25 06:51:04;;;;;;;0.10;0.10;;;9.40;99.90;;;;;;5105393;27;20257;-83
2021/04/25 06:53:31;;;;;;;0.23;0.23;;;9.70;99.90;;;;;;5111677;27;20680;-83
2021/04/25 06:55:57;;;;;;;0.20;0.20;;;9.60;99.90;;;;;;5102896;28;20876;-82
2021/04/25 06:58:23;;;;;;;0.10;0.10;;;9.60;99.90;;;;;;5107934;27;20263;-83
2021/04/25 07:00:48;;;;;;;0.10;0.10;;;10.00;99.90;;;;;;5099116;27;20340;-83
2021/04/25 07:03:14;;;;;;;0.13;0.13;;;9.90;99.90;;;;;;5099204;28;20625;-83
2021/04/25 07:05:39;;;;;;;0.10;0.10;;;10.10;99.90;;;;;;5105734;28;20195;-83
2021/04/25 07:08:06;;;;;;;0.40;0.40;;;9.70;99.90;;;;;;5106714;27;20256;-83
2021/04/25 07:10:31;;;;;;;0.17;0.17;;;10.20;99.90;;;;;;5096693;27;20239;-83
2021/04/25 07:12:57;;;;;;;0.13;0.13;;;10.50;99.90;;;;;;5097180;28;20569;-83
2021/04/25 07:15:23;;;;;;;0.00;0.00;;;10.70;99.90;;;;;;5100662;28;20193;-84
2021/04/25 07:17:48;;;;;;;0.10;0.10;;;10.50;99.90;;;;;;5099320;28;20320;-83
2021/04/25 07:20:14;;;;;;;0.00;0.00;;;10.30;99.90;;;;;;5092036;28;20560;-83
2021/04/25 07:22:40;;;;;;;0.47;0.20;;;10.40;99.90;;;;;;5107691;27;20397;-83
2021/04/25 07:25:08;;;;;;;0.10;0.10;;;10.50;99.90;;;;;;5115267;27;20283;-83
2021/04/25 07:27:35;;;;;;;3.90;0.30;;;10.70;99.90;;;;;;5108501;28;20215;-83
2021/04/25 07:30:00;;;;;;;1.13;0.90;;;10.90;99.90;;;;;;5091301;28;20230;-83
2021/04/25 07:32:26;;;;;;;2.27;0.60;;;10.80;99.90;;;;;;5096450;28;20210;-83
2021/04/25 07:34:52;;;;;;;0.10;0.10;;;11.10;99.90;;;;;;5100727;27;20175;-80
2021/04/25 07:37:17;;;;;;;0.13;0.13;;;11.10;99.90;;;;;;5109201;27;20192;-79
2021/04/25 07:39:43;;;;;;;0.37;0.37;;;11.10;99.90;;;;;;5095721;28;20271;-80
2021/04/25 07:42:11;;;;;;;1.03;0.50;;;10.80;99.90;;;;;;5105607;27;20194;-80
2021/04/25 07:44:40;;;;;;;0.83;0.30;;;10.80;99.90;;;;;;5096937;28;20306;-78
2021/04/25 07:47:06;;;;;;;0.60;0.30;;;10.60;99.90;;;;;;5104296;27;20218;-81
2021/04/25 07:49:32;;;;;;;0.10;0.10;;;10.80;99.90;;;;;;5082038;27;20187;-79
2021/04/25 07:51:58;;;;;;;0.63;0.40;;;10.80;99.90;;;;;;5071109;28;20211;-78
2021/04/25 07:54:24;;;;;;;0.20;0.20;;;10.90;99.90;;;;;;5076509;28;20184;-80
2021/04/25 07:56:49;;;;;;;0.73;0.30;;;11.10;99.90;;;;;;5093211;28;20180;-81
2021/04/25 07:59:15;;;;;;;0.60;0.40;;;11.10;99.90;;;;;;5095296;28;20546;-80
2021/04/25 08:01:40;;;;;;;0.33;0.33;;;11.20;99.90;;;;;;5108294;27;20697;-80
2021/04/25 08:04:06;;;;;;;0.30;0.30;;;11.30;99.90;;;;;;5098907;28;20184;-81
2021/04/25 08:06:32;;;;;;;0.10;0.10;;;11.40;99.90;;;;;;5102469;28;20614;-79
2021/04/25 08:08:57;;;;;;;0.23;0.23;;;11.30;99.90;;;;;;5108898;28;20188;-80
2021/04/25 08:11:23;;;;;;;0.47;0.47;;;11.80;99.90;;;;;;5103288;27;20207;-80
2021/04/25 08:13:49;;;;;;;0.30;0.20;;;12.20;99.90;;;;;;5102403;28;22116;-80
2021/04/25 08:16:14;;;;;;;0.30;0.30;;;11.80;99.90;;;;;;5092636;28;20188;-80
2021/04/25 08:18:40;;;;;;;0.20;0.20;;;11.60;99.90;;;;;;5097207;28;20192;-80
2021/04/25 08:21:09;;;;;;;0.87;0.20;;;12.00;99.90;;;;;;5092136;28;20246;-79
2021/04/25 08:23:36;;;;;;;0.40;0.40;;;12.40;99.90;;;;;;5097080;28;20190;-80
2021/04/25 08:26:02;;;;;;;0.70;0.20;;;11.80;99.90;;;;;;5088230;28;20204;-80
2021/04/25 08:28:28;;;;;;;0.20;0.20;;;12.00;99.90;;;;;;5094052;28;20184;-78
2021/04/25 08:30:53;;;;;;;1.27;0.63;;;12.10;99.90;;;;;;5090493;28;20211;-83
2021/04/25 08:33:19;;;;;;;0.10;0.10;;;12.60;99.90;;;;;;5104643;28;20183;-80
2021/04/25 08:35:44;;;;;;;0.33;0.33;;;12.70;99.90;;;;;;5092286;28;20234;-82
2021/04/25 08:38:10;;;;;;;1.23;0.47;;;12.70;99.90;;;;;;5096132;28;20578;-83
2021/04/25 08:40:36;;;;;;;0.20;0.20;;;12.90;99.90;;;;;;5100234;28;20215;-82
2021/04/25 08:43:02;;;;;;;0.20;0.20;;;12.70;99.90;;;;;;5097203;28;20191;-83
2021/04/25 08:45:28;;;;;;;0.30;0.30;;;12.50;99.90;;;;;;5102012;28;20188;-83
2021/04/25 08:47:58;;;;;;;0.57;0.27;;;12.80;99.90;;;;;;5090570;28;20625;-83
2021/04/25 08:50:30;;;;;;;0.20;0.20;;;13.00;99.90;;;;;;5105209;28;20258;-83
2021/04/25 08:52:57;;;;;;;0.27;0.27;;;13.50;99.90;;;;;;5092237;28;20649;-83
2021/04/25 08:55:23;;;;;;;0.20;0.20;;;13.70;99.90;;;;;;5094099;28;20565;-82
2021/04/25 08:57:49;;;;;;;0.10;0.10;;;13.20;99.90;;;;;;5102060;28;20598;-82
2021/04/25 09:00:16;;;;;;;0.23;0.23;;;13.10;99.90;;;;;;5098363;28;20672;-83
2021/04/25 09:02:42;;;;;;;0.23;0.23;;;12.10;99.90;;;;;;5117680;27;20204;-82
2021/04/25 09:05:08;;;;;;;0.30;0.30;;;12.50;99.90;;;;;;5106655;28;20207;-83
2021/04/25 09:07:33;;;;;;;0.60;0.60;;;13.10;99.90;;;;;;5100373;28;20227;-82
2021/04/25 09:10:08;;;;;;;0.10;0.10;;;13.30;99.90;;;;;;5102124;28;20188;-81
2021/04/25 09:12:40;;;;;;;0.20;0.20;;;13.00;99.90;;;;;;5107386;28;20223;-85
2021/04/25 09:15:12;;;;;;;1.00;1.00;;;12.90;99.90;;;;;;5101766;28;20183;-84
2021/04/25 09:17:51;;;;;;;0.83;0.47;;;12.70;99.90;;;;;;5099108;28;20192;-82
2021/04/25 09:20:18;;;;;;;0.37;0.37;;;12.80;99.90;;;;;;5109397;27;20222;-85
2021/04/25 09:22:51;;;;;;;0.30;0.30;;;13.10;99.90;;;;;;5095231;28;20237;-83
2021/04/25 09:25:19;;;;;;;0.10;0.10;;;13.50;99.90;;;;;;5102888;28;20661;-83
2021/04/25 09:27:47;;;;;;;0.30;0.23;;;13.10;99.90;;;;;;5121408;27;20209;-83
2021/04/25 09:30:20;;;;;;;1.07;0.43;;;13.30;99.90;;;;;;5102077;27;20831;-83
2021/04/25 09:32:46;;;;;;;0.40;0.40;;;12.70;99.90;;;;;;5100111;28;20584;-83
2021/04/25 09:35:12;;;;;;;0.83;0.17;;;13.30;99.90;;;;;;5098674;28;20178;-81
2021/04/25 09:37:41;;;;;;;1.77;1.20;;;13.20;99.90;;;;;;5090821;28;20642;-83
2021/04/25 09:40:17;;;;;;;0.10;0.10;;;13.70;99.90;;;;;;5100423;28;20853;-83
2021/04/25 09:43:08;;;;;;;2.10;0.30;;;13.80;99.90;;;;;;5099288;28;20184;-83
2021/04/25 09:45:33;;;;;;;0.10;0.10;;;14.30;99.90;;;;;;5101225;27;20183;-83
2021/04/25 09:48:01;;;;;;;0.10;0.10;;;14.70;99.90;;;;;;5097308;28;20185;-83
2021/04/25 09:50:30;;;;;;;0.40;0.37;;;14.70;99.90;;;;;;5109444;28;20198;-82
2021/04/25 09:52:56;;;;;;;0.20;0.20;;;13.90;99.90;;;;;;5101857;28;20185;-83
2021/04/25 09:55:27;;;;;;;0.30;0.30;;;13.50;99.90;;;;;;5094731;28;20552;-84
2021/04/25 09:57:55;;;;;;;0.43;0.43;;;13.50;99.90;;;;;;5093777;28;20183;-82
2021/04/25 10:00:23;;;;;;;1.07;0.20;;;13.10;99.90;;;;;;5100141;28;20207;-83
2021/04/25 10:03:09;;;;;;;0.20;0.20;;;13.00;99.90;;;;;;5114270;27;20209;-82
2021/04/25 10:05:35;;;;;;;0.20;0.20;;;13.00;99.90;;;;;;5103852;28;20190;-83
2021/04/25 10:08:01;;;;;;;0.27;0.10;;;13.40;99.90;;;;;;5126883;27;20206;-81
2021/04/25 10:10:27;;;;;;;0.30;0.20;;;13.80;99.90;;;;;;5109102;27;20258;-83
2021/04/25 10:12:53;;;;;;;0.30;0.30;;;14.10;99.90;;;;;;5102644;27;20184;-82
2021/04/25 10:15:20;;;;;;;0.50;0.50;;;13.90;99.90;;;;;;5116157;28;20236;-83
2021/04/25 10:17:51;;;;;;;0.30;0.30;;;13.50;99.90;;;;;;5103816;28;20195;-81
2021/04/25 10:20:19;;;;;;;0.20;0.20;;;14.00;99.90;;;;;;5100983;28;20214;-83
2021/04/25 10:22:47;;;;;;;0.30;0.30;;;14.40;99.90;;;;;;5109619;28;20217;-82
2021/04/25 10:25:15;;;;;;;0.30;0.30;;;14.10;99.90;;;;;;5100787;28;20277;-82
2021/04/25 10:27:49;;;;;;;0.13;0.13;;;14.10;99.90;;;;;;5114806;28;20209;-83
2021/04/25 10:30:16;;;;;;;0.20;0.20;;;13.90;99.90;;;;;;5112793;27;20684;-82
2021/04/25 10:32:44;;;;;;;0.20;0.20;;;13.60;99.90;;;;;;5137057;27;20204;-81
2021/04/25 10:35:21;;;;;;;0.40;0.40;;;13.60;99.90;;;;;;5116121;27;20186;-82
2021/04/25 10:37:49;;;;;;;0.23;0.23;;;13.60;99.90;;;;;;5125732;27;20183;-84
2021/04/25 10:40:33;;;;;;;0.20;0.20;;;13.40;99.90;;;;;;5107193;28;20208;-81
2021/04/25 10:43:08;;;;;;;0.63;0.30;;;14.00;99.90;;;;;;5107651;28;20173;-81
2021/04/25 10:45:57;;;;;;;0.20;0.20;;;14.70;99.90;;;;;;5099221;27;20179;-79
2021/04/25 10:48:29;;;;;;;0.20;0.20;;;14.40;99.90;;;;;;5099187;28;20245;-80
2021/04/25 10:50:56;;;;;;;0.60;0.60;;;14.20;99.90;;;;;;5110646;28;20199;-79
2021/04/25 10:53:30;;;;;;;0.57;0.57;;;14.20;99.90;;;;;;5101637;28;20220;-79
2021/04/25 10:56:14;;;;;;;0.93;0.20;;;14.30;99.90;;;;;;5097642;28;20248;-78
2021/04/25 10:58:45;;;;;;;0.60;0.60;;;14.80;99.90;;;;;;5114849;28;20181;-80
2021/04/25 11:01:40;;;;;;;0.53;0.53;;;14.70;99.90;;;;;;5103659;27;20729;-79
2021/04/25 11:04:08;;;;;;;0.47;0.47;;;14.80;99.90;;;;;;5102069;28;20200;-81
2021/04/25 11:06:34;;;;;;;0.30;0.30;;;14.40;99.90;;;;;;5093207;28;20225;-80
2021/04/25 11:09:01;;;;;;;0.20;0.20;;;14.70;99.90;;;;;;5103509;28;20659;-80
2021/04/25 11:11:32;;;;;;;0.50;0.50;;;14.80;99.90;;;;;;5109016;27;20196;-78
2021/04/25 11:13:58;;;;;;;0.40;0.30;;;14.80;99.90;;;;;;5103834;28;20234;-79
2021/04/25 11:16:25;;;;;;;2.27;0.50;;;14.40;99.90;;;;;;5099663;28;20570;-80
2021/04/25 11:19:06;;;;;;;0.20;0.20;;;14.60;99.90;;;;;;5097732;28;20187;-80
2021/04/25 11:21:32;;;;;;;1.00;0.43;;;15.00;99.90;;;;;;5103407;28;20221;-79
2021/04/25 11:24:06;;;;;;;0.30;0.30;;;14.60;99.90;;;;;;5103263;28;20541;-79
2021/04/25 11:26:38;;;;;;;1.40;0.50;;;14.30;99.90;;;;;;5102275;28;20694;-80
2021/04/25 11:29:05;;;;;;;0.60;0.60;;;14.60;99.90;;;;;;5102884;28;20184;-79
2021/04/25 11:31:45;;;;;;;0.23;0.23;;;14.60;99.90;;;;;;5102265;28;20203;-80
2021/04/25 11:34:26;;;;;;;0.43;0.37;;;14.50;99.90;;;;;;5099662;28;20179;-80
2021/04/25 11:36:52;;;;;;;0.20;0.20;;;14.60;99.90;;;;;;5101894;28;20231;-80
2021/04/25 11:39:19;;;;;;;0.10;0.10;;;14.80;99.90;;;;;;5100323;28;20739;-81
2021/04/25 11:41:46;;;;;;;1.03;0.30;;;14.70;99.90;;;;;;5098360;28;20253;-80
2021/04/25 11:44:12;;;;;;;0.50;0.50;;;15.20;99.90;;;;;;5104750;28;20187;-79
2021/04/25 11:46:38;;;;;;;0.43;0.40;;;15.00;99.90;;;;;;5097474;28;20205;-80
2021/04/25 11:49:05;;;;;;;0.10;0.10;;;14.90;99.90;;;;;;5097511;28;20676;-83
2021/04/25 11:51:31;;;;;;;0.30;0.30;;;15.70;99.90;;;;;;5095179;28;20660;-80
2021/04/25 11:53:58;;;;;;;0.10;0.10;;;15.30;99.90;;;;;;5108572;27;20236;-81
2021/04/25 11:56:26;;;;;;;0.23;0.23;;;15.00;99.90;;;;;;5107979;27;20278;-81
2021/04/25 11:59:02;;;;;;;1.07;1.07;;;15.20;99.90;;;;;;5094085;28;20231;-80
2021/04/25 12:01:28;;;;;;;0.67;0.67;;;14.90;99.90;;;;;;5096055;27;20223;-79
2021/04/25 12:03:53;;;;;;;0.40;0.40;;;14.80;99.90;;;;;;5110255;27;20226;-80
2021/04/25 12:06:19;;;;;;;0.40;0.10;;;14.50;99.90;;;;;;5096302;27;20232;-81
2021/04/25 12:08:52;;;;;;;0.10;0.10;;;14.30;99.90;;;;;;5109642;28;20232;-80
2021/04/25 12:11:25;;;;;;;0.10;0.10;;;14.80;99.90;;;;;;5121815;27;20684;-81
2021/04/25 12:13:52;;;;;;;0.20;0.20;;;15.10;99.90;;;;;;5094559;28;20186;-81
2021/04/25 12:16:20;;;;;;;0.20;0.20;;;15.00;99.90;;;;;;5099959;27;20238;-80
2021/04/25 12:18:46;;;;;;;1.97;0.70;;;14.90;99.90;;;;;;5099713;28;20222;-81
2021/04/25 12:21:19;;;;;;;0.20;0.20;;;15.10;99.90;;;;;;5092829;28;20594;-81
2021/04/25 12:23:55;;;;;;;0.17;0.17;;;15.30;99.90;;;;;;5100832;28;20195;-80
2021/04/25 12:26:22;;;;;;;0.43;0.33;;;15.10;99.90;;;;;;5091612;28;20230;-81
2021/04/25 12:28:50;;;;;;;0.20;0.20;;;15.50;99.90;;;;;;5095482;28;20187;-80
2021/04/25 12:31:18;;;;;;;0.40;0.40;;;15.30;99.90;;;;;;5097043;28;20557;-80
2021/04/25 12:33:48;;;;;;;0.13;0.13;;;15.50;99.90;;;;;;5099747;28;20189;-80
2021/04/25 12:36:16;;;;;;;0.83;0.30;;;16.10;99.90;;;;;;5118063;27;20186;-80
2021/04/25 12:38:43;;;;;;;0.40;0.40;;;16.40;99.90;;;;;;5110155;27;20278;-81
2021/04/25 12:41:16;;;;;;;3.63;0.90;;;15.50;99.90;;;;;;5111324;27;20698;-82
2021/04/25 12:43:48;;;;;;;1.10;0.30;;;15.50;99.90;;;;;;5108296;27;20187;-80
2021/04/25 12:46:15;;;;;;;0.20;0.20;;;15.90;99.90;;;;;;5115762;27;20203;-82
2021/04/25 12:48:47;;;;;;;0.10;0.10;;;15.70;99.90;;;;;;5113877;28;20170;-80
2021/04/25 12:51:14;;;;;;;1.30;0.40;;;15.60;99.90;;;;;;5112411;28;20200;-81
2021/04/25 12:53:44;;;;;;;0.10;0.10;;;15.80;99.90;;;;;;5104200;28;20209;-81